Time;durP1;ratioP1;P1;durP2;ratioP2;P2;SDS_P1;SDS_P2;PMS_P1;PMS_P2;Temp;Humidity;BMP_temperature;BMP_pressure;BME280_temperature;BME280_humidity;BME280_pressure;Samples;Min_cycle;Max_cycle;Signal;HPM_P1;HPM_P2
2023/10/13 03:02:23;;;;;;;57.20;25.77;;;16.20;99.90;;;;;;6094423;22;1451867;-81
2023/10/13 03:04:59;;;;;;;66.82;27.33;;;16.20;99.90;;;;;;6184445;23;20244;-81
2023/10/13 03:07:30;;;;;;;;;;;16.20;99.90;;;;;;6186976;23;20024;-81
2023/10/13 03:10:00;;;;;;;62.03;25.65;;;16.20;99.90;;;;;;6184873;23;19916;-82
2023/10/13 03:12:26;;;;;;;67.43;27.67;;;16.20;99.90;;;;;;6155829;23;20020;-83
2023/10/13 03:15:12;;;;;;;69.25;25.48;;;16.20;99.90;;;;;;6156043;23;20459;-82
2023/10/13 03:17:43;;;;;;;64.15;26.02;;;16.20;99.90;;;;;;6154265;23;20028;-82
2023/10/13 03:20:13;;;;;;;66.88;26.65;;;16.20;99.90;;;;;;6154551;23;20044;-82
2023/10/13 03:22:38;;;;;;;65.47;25.50;;;16.20;99.90;;;;;;6153495;23;20435;-81
2023/10/13 03:25:06;;;;;;;64.43;24.50;;;16.20;99.90;;;;;;6152245;23;20093;-82
2023/10/13 03:30:35;;;;;;;55.53;22.83;;;16.20;99.90;;;;;;6129015;23;20072;-78
2023/10/13 03:33:11;;;;;;;60.50;23.05;;;16.20;99.90;;;;;;6153751;23;20459;-81
2023/10/13 03:35:41;;;;;;;49.53;21.20;;;16.30;99.90;;;;;;6155391;23;20025;-81
2023/10/13 03:38:16;;;;;;;56.75;21.83;;;16.30;99.90;;;;;;6153502;23;20021;-81
2023/10/13 03:40:48;;;;;;;;;;;16.30;99.90;;;;;;6155843;23;20017;-81
2023/10/13 03:43:16;;;;;;;54.08;20.42;;;16.30;99.90;;;;;;6153809;23;20335;-83
2023/10/13 03:45:48;;;;;;;54.50;20.95;;;16.30;99.90;;;;;;6153587;23;20375;-82
2023/10/13 03:51:03;;;;;;;54.42;20.25;;;16.30;99.90;;;;;;6156178;23;20379;-83
2023/10/13 03:53:33;;;;;;;63.25;21.48;;;16.30;99.90;;;;;;6154202;23;20014;-83
2023/10/13 03:56:12;;;;;;;61.13;22.38;;;16.20;99.90;;;;;;6154335;23;20018;-82
2023/10/13 03:58:53;;;;;;;59.25;21.58;;;16.30;99.90;;;;;;6154293;23;20351;-82
2023/10/13 04:01:31;;;;;;;56.80;21.90;;;16.30;99.90;;;;;;6168580;23;20009;-83
2023/10/13 04:04:04;;;;;;;62.30;23.05;;;16.20;99.90;;;;;;6159217;23;20063;-83
2023/10/13 04:17:33;;;;;;;63.55;23.45;;;16.30;99.90;;;;;;6187215;23;20504;-85
2023/10/13 04:36:21;;;;;;;49.60;21.17;;;16.20;99.90;;;;;;6160950;23;20051;-84
2023/10/13 04:41:57;;;;;;;65.30;21.05;;;16.10;99.90;;;;;;6171003;23;20021;-79
2023/10/13 05:52:06;;;;;;;24.45;13.38;;;15.90;99.90;;;;;;6119277;23;20140;-84
2023/10/13 06:30:14;;;;;;;14.00;8.15;;;16.10;99.90;;;;;;6160319;23;20035;-82
2023/10/13 06:32:39;;;;;;;17.20;8.60;;;16.10;99.90;;;;;;6187120;23;20411;-86
2023/10/13 06:35:15;;;;;;;16.33;9.57;;;16.10;99.90;;;;;;6159973;23;20035;-85
2023/10/13 06:37:42;;;;;;;13.27;8.70;;;16.20;99.90;;;;;;6159736;23;20020;-85
2023/10/13 06:43:11;;;;;;;14.80;8.23;;;16.30;99.90;;;;;;6159792;23;20155;-85
2023/10/13 06:45:37;;;;;;;15.05;8.05;;;16.30;99.90;;;;;;6186399;23;20101;-83
2023/10/13 06:48:04;;;;;;;11.77;6.95;;;16.30;99.90;;;;;;6159475;23;20454;-86
2023/10/13 06:50:38;;;;;;;15.63;7.35;;;16.30;99.90;;;;;;6186438;23;20020;-84
2023/10/13 06:53:04;;;;;;;10.88;6.63;;;16.40;99.90;;;;;;6187222;23;20348;-84
2023/10/13 06:55:35;;;;;;;10.25;6.18;;;16.50;99.90;;;;;;6186700;23;20020;-85
2023/10/13 06:58:06;;;;;;;13.60;6.88;;;16.40;99.90;;;;;;6160066;23;20017;-83
2023/10/13 07:00:37;;;;;;;11.57;5.88;;;16.40;99.90;;;;;;6135051;23;20100;-82
2023/10/13 07:03:08;;;;;;;13.30;5.70;;;16.40;99.90;;;;;;6159837;23;20017;-84
2023/10/13 07:05:39;;;;;;;12.93;6.28;;;16.40;99.90;;;;;;6160570;23;20009;-81
2023/10/13 07:08:06;;;;;;;16.27;6.53;;;16.40;99.90;;;;;;6185791;23;20020;-84
2023/10/13 07:10:44;;;;;;;17.00;6.07;;;16.40;99.90;;;;;;6159432;23;20015;-83
2023/10/13 07:13:13;;;;;;;17.88;6.32;;;16.40;99.90;;;;;;6135948;23;20013;-83
2023/10/13 07:15:44;;;;;;;15.05;5.72;;;16.30;99.90;;;;;;6136245;23;20020;-82
2023/10/13 07:18:19;;;;;;;16.10;6.05;;;16.40;99.90;;;;;;6186500;23;20013;-83
2023/10/13 07:20:44;;;;;;;17.48;6.15;;;16.40;99.90;;;;;;6186177;23;20095;-82
2023/10/13 07:23:17;;;;;;;22.35;6.20;;;16.40;99.90;;;;;;6159358;23;20025;-82
2023/10/13 07:26:02;;;;;;;17.88;6.70;;;16.40;99.90;;;;;;6159907;23;20095;-81
2023/10/13 07:28:30;;;;;;;16.92;6.85;;;16.40;99.90;;;;;;6135073;23;20083;-83
2023/10/13 07:33:26;;;;;;;17.20;6.45;;;16.40;99.90;;;;;;6159202;23;20088;-83
2023/10/13 07:38:49;;;;;;;17.98;6.72;;;16.30;99.90;;;;;;6159133;23;20059;-84
2023/10/13 07:41:15;;;;;;;16.60;6.50;;;16.40;99.90;;;;;;6159162;23;20017;-82
2023/10/13 07:43:44;;;;;;;19.83;6.70;;;16.30;99.90;;;;;;6158841;23;20013;-82
2023/10/13 07:46:09;;;;;;;16.15;6.90;;;16.30;99.90;;;;;;6159163;23;20017;-80
2023/10/13 07:48:45;;;;;;;16.50;6.80;;;16.30;99.90;;;;;;6157765;23;20024;-82
2023/10/13 07:51:15;;;;;;;21.15;7.65;;;16.30;99.90;;;;;;6159380;23;20020;-80
2023/10/13 07:53:48;;;;;;;17.38;6.90;;;16.30;99.90;;;;;;6137494;23;20312;-81
2023/10/13 07:56:18;;;;;;;21.65;8.68;;;16.40;99.90;;;;;;6161214;23;20013;-80
2023/10/13 07:59:00;;;;;;;19.33;8.32;;;16.40;99.90;;;;;;6161053;23;20024;-81
2023/10/13 08:01:26;;;;;;;25.65;8.93;;;16.40;99.90;;;;;;6160790;23;20019;-79
2023/10/13 08:04:07;;;;;;;21.30;8.25;;;16.30;99.90;;;;;;6160952;23;20091;-79
2023/10/13 08:06:36;;;;;;;18.92;8.18;;;16.30;99.90;;;;;;6161083;23;20339;-79
2023/10/13 08:09:09;;;;;;;21.85;7.80;;;16.30;99.90;;;;;;6160885;23;20013;-80
2023/10/13 08:11:37;;;;;;;20.63;8.93;;;16.30;99.90;;;;;;6161210;23;20016;-82
2023/10/13 08:19:16;;;;;;;22.60;7.82;;;16.40;99.90;;;;;;6160903;23;20028;-82
2023/10/13 08:21:51;;;;;;;20.85;8.02;;;16.40;99.90;;;;;;6160773;23;20013;-82
2023/10/13 08:24:25;;;;;;;18.50;8.02;;;16.40;99.90;;;;;;6160851;23;20017;-77
2023/10/13 08:26:56;;;;;;;27.55;8.50;;;16.40;99.90;;;;;;6161098;23;20017;-80
2023/10/13 08:32:14;;;;;;;16.27;8.15;;;16.40;99.90;;;;;;6187290;23;20017;-81
2023/10/13 08:37:22;;;;;;;21.77;8.73;;;16.40;99.90;;;;;;6160897;23;20017;-78
2023/10/13 08:39:58;;;;;;;21.25;9.68;;;16.40;99.90;;;;;;6160647;23;20012;-80
2023/10/13 08:48:07;;;;;;;24.08;10.77;;;16.50;99.90;;;;;;6160823;23;20017;-79
2023/10/13 08:53:32;;;;;;;23.23;11.77;;;16.60;99.90;;;;;;6160615;23;20017;-79
2023/10/13 08:58:59;;;;;;;22.35;12.02;;;16.60;99.90;;;;;;6167610;23;20021;-78
2023/10/13 09:01:14;;;;;;;;;;;16.60;99.90;;;;;;6166678;23;20023;-80
2023/10/13 09:03:42;;;;;;;22.05;11.52;;;16.80;99.90;;;;;;6135882;23;19955;-82
2023/10/13 09:06:19;;;;;;;25.75;12.18;;;16.80;99.90;;;;;;6160626;23;20017;-81
2023/10/13 09:09:07;;;;;;;21.52;10.70;;;16.90;99.90;;;;;;6161354;23;20319;-79
2023/10/13 09:11:48;;;;;;;16.90;10.68;;;16.90;99.90;;;;;;6159636;23;20077;-80
2023/10/13 09:14:33;;;;;;;23.02;10.77;;;17.00;99.90;;;;;;6160431;23;20009;-78
2023/10/13 09:17:09;;;;;;;20.63;9.25;;;17.10;99.90;;;;;;6139375;23;20020;-79
2023/10/13 09:19:57;;;;;;;20.27;8.40;;;17.20;99.90;;;;;;6186989;23;20055;-80
2023/10/13 09:22:28;;;;;;;26.50;8.63;;;17.30;99.90;;;;;;6160092;23;20088;-81
2023/10/13 09:24:58;;;;;;;21.08;8.32;;;17.30;99.90;;;;;;6160274;23;20477;-79
2023/10/13 09:27:33;;;;;;;18.45;7.00;;;17.50;99.90;;;;;;6160964;23;20375;-81
2023/10/13 09:30:07;;;;;;;19.63;7.53;;;17.60;99.90;;;;;;6186789;23;20373;-80
2023/10/13 09:32:45;;;;;;;14.10;7.63;;;17.60;99.90;;;;;;6160215;23;20075;-80
2023/10/13 09:35:16;;;;;;;17.65;7.97;;;17.70;99.90;;;;;;6160470;23;20020;-77
2023/10/13 09:37:46;;;;;;;21.38;7.05;;;17.80;99.90;;;;;;6160158;23;20024;-81
2023/10/13 09:40:25;;;;;;;17.55;6.85;;;17.80;99.90;;;;;;6186958;23;20011;-78
2023/10/13 09:42:56;;;;;;;23.90;8.10;;;17.80;99.90;;;;;;6160230;23;20020;-77
2023/10/13 09:45:56;;;;;;;20.13;7.35;;;17.90;99.90;;;;;;6161057;23;20327;-79
2023/10/13 09:48:28;;;;;;;17.00;7.25;;;17.90;99.90;;;;;;6161881;23;20379;-77
2023/10/13 09:50:59;;;;;;;16.75;6.75;;;18.00;99.90;;;;;;6161089;23;20462;-78
2023/10/13 09:53:25;;;;;;;16.13;7.07;;;18.00;99.90;;;;;;6160475;23;20011;-79
2023/10/13 09:56:01;;;;;;;19.80;7.50;;;18.00;99.90;;;;;;6136203;23;20016;-80
2023/10/13 09:58:34;;;;;;;;;;;18.10;99.90;;;;;;6160881;23;20045;-81
2023/10/13 10:01:09;;;;;;;18.20;6.82;;;18.10;99.90;;;;;;6159874;23;19919;-80
2023/10/13 10:03:50;;;;;;;14.95;6.32;;;18.10;99.90;;;;;;6186615;23;20013;-79
2023/10/13 10:06:28;;;;;;;19.98;7.47;;;18.10;99.90;;;;;;6186674;23;20392;-80
2023/10/13 10:09:11;;;;;;;20.95;7.03;;;18.10;99.90;;;;;;6159813;23;20451;-80
2023/10/13 10:11:54;;;;;;;18.75;7.53;;;18.20;99.90;;;;;;6159798;23;20052;-79
2023/10/13 10:14:44;;;;;;;14.55;6.35;;;18.20;99.90;;;;;;6186392;23;20323;-80
2023/10/13 10:17:10;;;;;;;15.88;6.47;;;18.30;99.90;;;;;;6135386;23;20009;-79
2023/10/13 10:19:56;;;;;;;16.63;6.47;;;18.30;99.90;;;;;;6135465;23;20347;-77
2023/10/13 10:22:35;;;;;;;19.98;6.75;;;18.30;99.90;;;;;;6159688;23;20367;-80
2023/10/13 10:25:02;;;;;;;20.33;6.68;;;18.30;99.90;;;;;;6159591;23;20022;-77
2023/10/13 10:27:33;;;;;;;18.20;6.43;;;18.40;99.90;;;;;;6159678;23;20028;-78
2023/10/13 10:29:59;;;;;;;16.60;6.22;;;18.50;99.90;;;;;;6159654;23;20088;-78
2023/10/13 10:32:40;;;;;;;17.92;6.10;;;18.50;99.90;;;;;;6159600;23;20103;-79
2023/10/13 10:35:20;;;;;;;15.43;6.00;;;18.60;99.90;;;;;;6159661;23;20066;-81
2023/10/13 10:37:49;;;;;;;17.65;5.97;;;18.60;99.90;;;;;;6159517;23;20013;-77
2023/10/13 10:43:08;;;;;;;23.15;6.10;;;18.80;99.90;;;;;;6159390;23;20069;-79
2023/10/13 10:45:36;;;;;;;17.08;6.03;;;18.90;99.90;;;;;;6159552;23;20327;-79
2023/10/13 10:48:17;;;;;;;17.63;5.72;;;19.00;99.90;;;;;;6159358;23;20013;-80
2023/10/13 10:50:53;;;;;;;15.73;6.15;;;19.10;99.90;;;;;;6186135;23;20072;-79
2023/10/13 10:53:22;;;;;;;20.27;5.68;;;19.20;99.90;;;;;;6134130;23;20013;-80
2023/10/13 10:55:49;;;;;;;17.40;5.85;;;19.30;99.90;;;;;;6159485;23;20013;-81
2023/10/13 10:58:32;;;;;;;16.98;5.03;;;19.40;99.90;;;;;;6159212;23;20104;-79
2023/10/13 11:01:11;;;;;;;20.88;5.95;;;19.40;99.90;;;;;;6159228;23;20343;-79
2023/10/13 11:03:38;;;;;;;16.95;5.72;;;19.30;99.90;;;;;;6159218;23;20017;-80
2023/10/13 11:06:14;;;;;;;21.08;6.53;;;19.30;99.90;;;;;;6159216;23;20013;-79
2023/10/13 11:08:43;;;;;;;21.05;5.72;;;19.40;99.90;;;;;;6160419;23;20013;-80
2023/10/13 11:11:17;;;;;;;18.27;5.30;;;19.40;99.90;;;;;;6186457;23;20017;-81
2023/10/13 11:14:13;;;;;;;18.17;5.47;;;19.40;99.90;;;;;;6159382;23;20017;-79
2023/10/13 11:16:50;;;;;;;13.75;4.90;;;19.40;99.90;;;;;;6159440;23;20019;-84
2023/10/13 11:19:20;;;;;;;20.33;5.53;;;19.40;99.90;;;;;;6185898;23;20443;-81
2023/10/13 11:21:49;;;;;;;15.02;4.90;;;19.50;99.90;;;;;;6159484;23;20052;-78
2023/10/13 11:24:17;;;;;;;22.52;5.07;;;19.50;99.90;;;;;;6185368;23;20451;-79
2023/10/13 11:26:49;;;;;;;16.88;5.68;;;19.50;99.90;;;;;;6185923;23;20080;-81
2023/10/13 11:29:19;;;;;;;19.90;5.85;;;19.50;99.90;;;;;;6159220;23;20447;-84
2023/10/13 11:31:58;;;;;;;17.77;5.60;;;19.50;99.90;;;;;;6185759;23;20009;-78
2023/10/13 11:34:24;;;;;;;20.65;5.43;;;19.50;99.90;;;;;;6185865;23;20009;-80
2023/10/13 11:36:50;;;;;;;17.90;5.60;;;19.50;99.90;;;;;;6134696;23;20343;-81
2023/10/13 11:39:24;;;;;;;14.32;5.00;;;19.40;99.90;;;;;;6159229;23;20092;-78
2023/10/13 11:41:56;;;;;;;22.60;6.03;;;19.40;99.90;;;;;;6159156;23;20049;-82
2023/10/13 11:46:55;;;;;;;17.83;5.65;;;19.40;99.90;;;;;;6158992;23;20350;-80
2023/10/13 11:51:49;;;;;;;14.90;5.10;;;19.50;99.90;;;;;;6159066;23;20075;-80
2023/10/13 11:54:23;;;;;;;16.98;5.85;;;19.50;99.90;;;;;;6158932;23;20013;-81
2023/10/13 11:56:49;;;;;;;18.33;5.32;;;19.50;99.90;;;;;;6134534;23;20343;-79
2023/10/13 11:59:27;;;;;;;23.75;5.60;;;19.50;99.90;;;;;;6185728;23;20013;-80
2023/10/13 12:04:49;;;;;;;17.85;5.35;;;19.50;99.90;;;;;;6186306;23;20032;-81
2023/10/13 12:07:19;;;;;;;19.80;5.95;;;19.50;99.90;;;;;;6159562;23;20304;-82
2023/10/13 12:12:27;;;;;;;16.20;6.30;;;19.30;99.90;;;;;;6159029;23;20044;-83
2023/10/13 12:14:58;;;;;;;20.63;6.72;;;19.30;99.90;;;;;;6185827;23;20035;-80
2023/10/13 12:17:31;;;;;;;14.88;6.18;;;19.30;99.90;;;;;;6159164;23;20091;-82
2023/10/13 12:20:05;;;;;;;15.60;6.70;;;19.20;99.90;;;;;;6160063;23;20033;-80
2023/10/13 12:22:51;;;;;;;19.10;6.45;;;19.20;99.90;;;;;;6134483;23;20017;-80
2023/10/13 12:28:06;;;;;;;16.38;6.05;;;19.30;99.90;;;;;;6158793;23;20032;-79
2023/10/13 12:33:24;;;;;;;17.77;6.38;;;19.40;99.90;;;;;;6185207;23;20107;-81
2023/10/13 12:52:16;;;;;;;20.83;6.65;;;19.70;99.90;;;;;;6160646;23;20059;-78
2023/10/13 12:57:27;;;;;;;17.85;5.70;;;19.70;99.90;;;;;;6160696;23;20017;-79
2023/10/13 12:59:53;;;;;;;22.23;6.78;;;19.70;99.90;;;;;;6160617;23;20056;-77
2023/10/13 13:02:26;;;;;;;17.55;6.43;;;19.60;99.90;;;;;;6186606;23;20005;-80
2023/10/13 13:05:06;;;;;;;18.23;6.47;;;19.50;99.90;;;;;;6160509;23;20049;-77
2023/10/13 13:07:43;;;;;;;25.23;7.03;;;19.50;99.90;;;;;;6160865;23;20450;-77
2023/10/13 13:10:13;;;;;;;21.17;6.72;;;19.40;99.90;;;;;;6160768;23;20339;-78
2023/10/13 13:12:39;;;;;;;25.25;6.53;;;19.20;99.90;;;;;;6160492;23;20036;-79
2023/10/13 13:15:08;;;;;;;17.80;7.28;;;19.20;99.90;;;;;;6160628;23;20017;-81
2023/10/13 13:17:38;;;;;;;19.33;6.63;;;19.10;99.90;;;;;;6187239;23;20085;-78
2023/10/13 13:20:11;;;;;;;19.23;7.00;;;19.00;99.90;;;;;;6160763;23;20071;-80
2023/10/13 13:22:39;;;;;;;20.58;7.00;;;18.90;99.90;;;;;;6193196;23;20013;-79
2023/10/13 13:25:09;;;;;;;14.85;7.00;;;18.90;99.90;;;;;;6169596;23;20013;-76
2023/10/13 13:27:36;;;;;;;18.00;7.00;;;18.90;99.90;;;;;;6164054;23;20013;-80
2023/10/13 13:30:11;;;;;;;16.85;7.00;;;18.90;99.90;;;;;;6187046;23;20446;-78
2023/10/13 13:32:37;;;;;;;;;;;19.00;99.90;;;;;;6160876;23;20482;-76
2023/10/13 13:35:04;;;;;;;18.25;6.68;;;19.00;99.90;;;;;;6160606;23;20242;-80
2023/10/13 13:37:34;;;;;;;17.60;6.57;;;19.00;99.90;;;;;;6160846;23;20327;-80
2023/10/13 13:40:14;;;;;;;25.42;7.55;;;19.00;99.90;;;;;;6160289;23;20024;-77
2023/10/13 13:42:42;;;;;;;17.33;7.25;;;19.00;99.90;;;;;;6136112;23;20055;-79
2023/10/13 13:45:32;;;;;;;22.73;6.78;;;19.00;99.90;;;;;;6160273;23;20036;-81
2023/10/13 13:47:58;;;;;;;17.10;7.10;;;18.90;99.90;;;;;;6160515;23;20024;-81
2023/10/13 13:50:26;;;;;;;15.07;6.57;;;18.90;99.90;;;;;;6160015;23;20005;-80
2023/10/13 13:52:55;;;;;;;20.45;7.43;;;18.90;99.90;;;;;;6160173;23;20017;-81
2023/10/13 13:55:28;;;;;;;20.30;7.38;;;18.90;99.90;;;;;;6160477;23;20443;-78
2023/10/13 13:57:56;;;;;;;20.15;6.93;;;18.90;99.90;;;;;;6160437;23;20011;-79
2023/10/13 14:00:36;;;;;;;16.25;7.20;;;19.00;99.90;;;;;;6159909;23;20044;-79
2023/10/13 14:03:13;;;;;;;19.02;7.00;;;19.00;99.90;;;;;;6187048;23;20020;-81
2023/10/13 14:05:43;;;;;;;26.70;7.57;;;19.00;99.90;;;;;;6159973;23;20439;-82
2023/10/13 14:08:15;;;;;;;22.45;6.78;;;19.00;99.90;;;;;;6160200;23;20309;-81
2023/10/13 14:16:16;;;;;;;21.65;7.30;;;19.00;99.90;;;;;;6160491;23;20024;-82
2023/10/13 14:18:51;;;;;;;20.63;6.53;;;19.00;99.90;;;;;;6160118;23;20013;-80
2023/10/13 14:21:18;;;;;;;16.48;6.32;;;19.00;99.90;;;;;;6160179;23;20525;-77
2023/10/13 14:23:48;;;;;;;22.88;6.57;;;19.10;99.90;;;;;;6160068;23;20047;-81
2023/10/13 14:26:20;;;;;;;18.52;6.85;;;19.10;99.90;;;;;;6160061;23;20349;-80
2023/10/13 14:29:00;;;;;;;18.85;6.68;;;19.10;99.90;;;;;;6135173;23;20013;-79
2023/10/13 14:31:26;;;;;;;14.68;6.45;;;19.20;99.90;;;;;;6135449;23;20345;-78
2023/10/13 14:33:53;;;;;;;20.08;6.95;;;19.20;99.90;;;;;;6159245;23;20021;-78
2023/10/13 14:36:19;;;;;;;22.35;6.90;;;19.20;99.90;;;;;;6135273;23;20100;-79
2023/10/13 14:38:49;;;;;;;18.67;7.35;;;19.20;99.90;;;;;;6159889;23;20052;-78
2023/10/13 14:41:16;;;;;;;17.73;8.13;;;19.20;99.90;;;;;;6160007;23;20056;-79
2023/10/13 14:43:47;;;;;;;15.25;6.90;;;19.10;99.90;;;;;;6135070;23;20071;-79
2023/10/13 14:46:16;;;;;;;21.63;7.25;;;19.10;99.90;;;;;;6159867;23;20490;-77
2023/10/13 14:48:48;;;;;;;23.70;7.05;;;19.10;99.90;;;;;;6135572;23;20451;-82
2023/10/13 14:51:16;;;;;;;17.05;6.30;;;19.10;99.90;;;;;;6159718;23;20016;-79
2023/10/13 14:53:46;;;;;;;21.08;7.45;;;19.10;99.90;;;;;;6134945;23;20013;-80
2023/10/13 14:56:13;;;;;;;20.08;7.30;;;19.00;99.90;;;;;;6159383;23;20407;-79
2023/10/13 14:58:42;;;;;;;19.42;7.82;;;18.90;99.90;;;;;;6159633;23;20013;-78
2023/10/13 15:01:19;;;;;;;19.63;8.73;;;18.80;99.90;;;;;;6159080;23;20021;-80
2023/10/13 15:03:51;;;;;;;21.70;8.60;;;18.70;99.90;;;;;;6160466;23;20013;-82
2023/10/13 15:06:26;;;;;;;20.67;9.00;;;18.50;99.90;;;;;;6159659;23;20084;-82
2023/10/13 15:08:55;;;;;;;17.45;7.97;;;18.40;99.90;;;;;;6185982;23;20019;-78
2023/10/13 15:11:26;;;;;;;20.30;8.90;;;18.30;99.90;;;;;;6186106;23;20016;-81
2023/10/13 15:13:52;;;;;;;26.30;10.02;;;18.20;99.90;;;;;;6134928;23;20320;-77
2023/10/13 15:16:23;;;;;;;19.83;9.52;;;18.10;99.90;;;;;;6159652;23;20400;-80
2023/10/13 15:18:53;;;;;;;24.83;10.13;;;18.10;99.90;;;;;;6159410;23;20017;-77
2023/10/13 15:21:21;;;;;;;20.42;9.80;;;18.00;99.90;;;;;;6159463;23;20017;-80
2023/10/13 15:23:50;;;;;;;22.48;9.77;;;18.00;99.90;;;;;;6159566;23;20048;-78
2023/10/13 15:26:17;;;;;;;23.60;9.80;;;18.00;99.90;;;;;;6186581;23;20371;-79
2023/10/13 15:28:48;;;;;;;21.77;10.75;;;17.90;99.90;;;;;;6159462;23;20040;-83
2023/10/13 15:31:37;;;;;;;21.95;10.15;;;17.90;99.90;;;;;;6160326;23;20013;-77
2023/10/13 15:34:07;;;;;;;22.63;9.73;;;17.90;99.90;;;;;;6162910;23;20013;-77
2023/10/13 15:36:36;;;;;;;22.33;10.57;;;17.90;99.90;;;;;;6162032;23;20048;-80
2023/10/13 15:39:02;;;;;;;21.20;10.80;;;17.80;99.90;;;;;;6159596;23;20338;-80
2023/10/13 15:41:28;;;;;;;24.35;9.80;;;17.90;99.90;;;;;;6186124;23;20023;-81
2023/10/13 15:43:55;;;;;;;26.30;11.32;;;17.80;99.90;;;;;;6159309;23;20013;-78
2023/10/13 15:46:24;;;;;;;25.00;11.18;;;17.90;99.90;;;;;;6185891;23;20088;-81
2023/10/13 15:48:51;;;;;;;28.05;10.27;;;17.90;99.90;;;;;;6159121;23;20328;-83
2023/10/13 15:51:17;;;;;;;21.00;10.10;;;17.80;99.90;;;;;;6185875;23;20024;-77
2023/10/13 15:53:44;;;;;;;22.95;9.82;;;17.80;99.90;;;;;;6186511;23;20059;-79
2023/10/13 15:56:14;;;;;;;22.42;9.05;;;17.80;99.90;;;;;;6159317;23;20013;-80
2023/10/13 15:58:50;;;;;;;25.52;9.98;;;17.80;99.90;;;;;;6159306;23;20013;-81
2023/10/13 16:01:16;;;;;;;20.88;8.40;;;17.80;99.90;;;;;;6159034;23;20021;-80
2023/10/13 16:03:51;;;;;;;21.58;8.65;;;17.80;99.90;;;;;;6159116;23;20088;-80
2023/10/13 16:06:17;;;;;;;16.40;7.40;;;17.80;99.90;;;;;;6134654;23;20056;-77
2023/10/13 16:08:43;;;;;;;21.17;7.88;;;17.80;99.90;;;;;;6185837;23;20013;-79
2023/10/13 16:11:17;;;;;;;16.67;6.88;;;17.80;99.90;;;;;;6159658;23;20009;-83
2023/10/13 16:13:44;;;;;;;22.48;7.88;;;17.80;99.90;;;;;;6161024;23;20005;-80
2023/10/13 16:16:23;;;;;;;18.08;6.70;;;17.80;99.90;;;;;;6160960;23;20078;-84
2023/10/13 16:18:52;;;;;;;13.35;6.03;;;17.80;99.90;;;;;;6160837;23;20017;-84
2023/10/13 16:21:19;;;;;;;18.10;6.30;;;17.80;99.90;;;;;;6161410;23;20025;-82
2023/10/13 16:23:50;;;;;;;18.38;5.90;;;17.80;99.90;;;;;;6160932;23;20371;-76
2023/10/13 16:26:21;;;;;;;10.68;5.20;;;17.70;99.90;;;;;;6160944;23;20013;-80
2023/10/13 16:28:48;;;;;;;16.25;5.05;;;17.80;99.90;;;;;;6187706;23;20087;-79
2023/10/13 16:31:14;;;;;;;14.13;5.63;;;17.80;99.90;;;;;;6136044;23;20017;-81
2023/10/13 16:33:40;;;;;;;16.08;5.10;;;17.80;99.90;;;;;;6160871;23;20013;-82
2023/10/13 16:36:09;;;;;;;13.65;4.28;;;17.80;99.90;;;;;;6187444;23;20427;-78
2023/10/13 16:38:36;;;;;;;10.48;4.40;;;17.80;99.90;;;;;;6187521;23;20020;-83
2023/10/13 16:41:08;;;;;;;13.20;4.80;;;17.80;99.90;;;;;;6161032;23;20096;-82
2023/10/13 16:43:35;;;;;;;10.75;4.63;;;17.80;99.90;;;;;;6187473;23;20009;-81
2023/10/13 16:46:12;;;;;;;14.07;4.60;;;17.90;99.90;;;;;;6187009;23;20067;-81
2023/10/13 16:48:39;;;;;;;16.33;4.65;;;17.90;99.90;;;;;;6186827;23;20021;-83
2023/10/13 16:51:05;;;;;;;12.63;5.30;;;17.90;99.90;;;;;;6187258;23;20009;-79
2023/10/13 16:53:34;;;;;;;14.38;5.57;;;17.90;99.90;;;;;;6160620;23;20067;-81
2023/10/13 16:56:02;;;;;;;12.38;4.55;;;17.90;99.90;;;;;;6187019;23;20076;-83
2023/10/13 16:58:30;;;;;;;15.00;5.43;;;17.90;99.90;;;;;;6187349;23;20012;-78
2023/10/13 17:00:56;;;;;;;11.88;5.43;;;17.90;99.90;;;;;;6160174;23;20021;-83
2023/10/13 17:03:40;;;;;;;14.93;5.32;;;17.90;99.90;;;;;;6160387;23;20028;-80
2023/10/13 17:06:07;;;;;;;16.63;6.90;;;17.90;99.90;;;;;;6160941;23;20362;-81
2023/10/13 17:08:36;;;;;;;18.23;6.78;;;17.90;99.90;;;;;;6186514;23;20009;-82
2023/10/13 17:11:11;;;;;;;18.65;7.28;;;17.90;99.90;;;;;;6160319;23;20035;-80
2023/10/13 17:13:39;;;;;;;17.40;7.30;;;17.90;99.90;;;;;;6161517;23;20037;-82
2023/10/13 17:16:13;;;;;;;17.35;7.43;;;17.90;99.90;;;;;;6186995;23;20067;-81
2023/10/13 17:18:39;;;;;;;16.90;7.63;;;17.90;99.90;;;;;;6135704;23;20024;-83
2023/10/13 17:21:24;;;;;;;15.75;7.72;;;17.90;99.90;;;;;;6186938;23;20084;-82
2023/10/13 17:23:52;;;;;;;17.25;7.78;;;17.90;99.90;;;;;;6186592;23;20017;-82
2023/10/13 17:26:26;;;;;;;22.13;8.18;;;17.90;99.90;;;;;;6186812;23;20023;-85
2023/10/13 17:28:58;;;;;;;18.80;7.82;;;17.90;99.90;;;;;;6160511;23;20017;-81
2023/10/13 17:31:26;;;;;;;19.52;7.80;;;17.90;99.90;;;;;;6160417;23;20045;-79
2023/10/13 17:33:53;;;;;;;17.67;7.90;;;17.90;99.90;;;;;;6159716;23;20063;-81
2023/10/13 17:36:18;;;;;;;19.50;7.78;;;18.00;99.90;;;;;;6167601;23;20013;-79
2023/10/13 17:38:44;;;;;;;13.07;7.57;;;18.00;99.90;;;;;;6192743;23;20020;-81
2023/10/13 17:41:13;;;;;;;15.73;6.88;;;18.00;99.90;;;;;;6162206;23;20024;-82
2023/10/13 17:43:40;;;;;;;14.90;6.15;;;18.10;99.90;;;;;;6186937;23;20023;-78
2023/10/13 17:46:07;;;;;;;17.60;5.97;;;18.20;99.90;;;;;;6160330;23;20017;-84
2023/10/13 17:48:34;;;;;;;16.40;6.80;;;18.20;99.90;;;;;;6160082;23;20021;-79
2023/10/13 17:51:04;;;;;;;20.60;6.38;;;18.20;99.90;;;;;;6160054;23;20041;-81
2023/10/13 17:53:34;;;;;;;17.00;6.07;;;18.20;99.90;;;;;;6160001;23;20012;-84
2023/10/13 17:56:18;;;;;;;17.38;7.00;;;18.30;99.90;;;;;;6135416;23;20292;-81
2023/10/13 17:58:44;;;;;;;19.63;6.82;;;18.30;99.90;;;;;;6160043;23;20092;-82
2023/10/13 18:01:17;;;;;;;17.80;6.35;;;18.30;99.90;;;;;;6159557;23;20346;-82
2023/10/13 18:03:52;;;;;;;13.82;6.07;;;18.30;99.90;;;;;;6159890;23;20025;-84
2023/10/13 18:06:19;;;;;;;19.77;6.70;;;18.30;99.90;;;;;;6159780;23;20025;-84
2023/10/13 18:08:46;;;;;;;18.65;6.63;;;18.30;99.90;;;;;;6159609;23;20017;-84
2023/10/13 18:11:13;;;;;;;23.73;6.38;;;18.30;99.90;;;;;;6186380;23;20009;-82
2023/10/13 18:13:43;;;;;;;13.23;6.10;;;18.30;99.90;;;;;;6159951;23;20016;-82
2023/10/13 18:16:26;;;;;;;20.73;7.18;;;18.40;99.90;;;;;;6186446;23;20526;-81
2023/10/13 18:18:55;;;;;;;22.50;7.05;;;18.40;99.90;;;;;;6158697;23;20111;-81
2023/10/13 18:21:22;;;;;;;19.25;6.75;;;18.40;99.90;;;;;;6158196;23;20331;-82
2023/10/13 18:23:48;;;;;;;17.00;8.05;;;18.30;99.90;;;;;;6159570;23;20459;-80
2023/10/13 18:26:19;;;;;;;21.55;7.57;;;18.30;99.90;;;;;;6185925;23;20013;-77
2023/10/13 18:28:46;;;;;;;22.25;8.20;;;18.30;99.90;;;;;;6159557;23;20056;-79
2023/10/13 18:31:11;;;;;;;20.75;8.15;;;18.30;99.90;;;;;;6133802;23;20013;-83
2023/10/13 18:33:39;;;;;;;23.13;7.80;;;18.30;99.90;;;;;;6158629;23;20091;-81
2023/10/13 18:36:12;;;;;;;20.42;7.43;;;18.30;99.90;;;;;;6186506;23;20017;-79
2023/10/13 18:38:39;;;;;;;22.42;7.38;;;18.30;99.90;;;;;;6159546;23;20021;-81
2023/10/13 18:41:04;;;;;;;20.65;7.45;;;18.20;99.90;;;;;;6159395;23;20012;-81
2023/10/13 18:43:30;;;;;;;18.88;8.13;;;18.30;99.90;;;;;;6158419;23;20051;-80
2023/10/13 18:46:06;;;;;;;23.70;7.88;;;18.30;99.90;;;;;;6160215;23;20013;-78
2023/10/13 18:48:33;;;;;;;20.42;8.20;;;18.30;99.90;;;;;;6159641;23;20084;-81
2023/10/13 18:50:59;;;;;;;21.30;8.18;;;18.30;99.90;;;;;;6159452;23;20436;-80
2023/10/13 18:53:27;;;;;;;12.30;7.22;;;18.30;99.90;;;;;;6186190;23;20020;-82
2023/10/13 18:55:54;;;;;;;19.42;7.93;;;18.40;99.90;;;;;;6185923;23;20466;-78
2023/10/13 18:58:19;;;;;;;18.02;8.20;;;18.30;99.90;;;;;;6159581;23;20024;-84
2023/10/13 19:00:45;;;;;;;18.83;7.50;;;18.40;99.90;;;;;;6134480;23;20017;-82
2023/10/13 19:03:11;;;;;;;22.75;8.23;;;18.30;99.90;;;;;;6186089;23;20040;-79
2023/10/13 19:05:44;;;;;;;19.38;8.00;;;18.30;99.90;;;;;;6160290;23;20498;-79
2023/10/13 19:08:10;;;;;;;19.13;8.50;;;18.30;99.90;;;;;;6159586;23;20013;-81
2023/10/13 19:10:36;;;;;;;20.73;8.02;;;18.20;99.90;;;;;;6185568;23;20013;-84
2023/10/13 19:13:04;;;;;;;20.27;8.93;;;18.20;99.90;;;;;;6159121;23;20024;-81
2023/10/13 19:15:35;;;;;;;24.88;8.93;;;18.20;99.90;;;;;;6186008;23;20009;-82
2023/10/13 19:18:02;;;;;;;24.13;8.50;;;18.20;99.90;;;;;;6159696;23;20009;-79
2023/10/13 19:20:30;;;;;;;22.85;8.65;;;18.10;99.90;;;;;;6158999;23;20017;-74
2023/10/13 19:22:55;;;;;;;23.30;9.48;;;18.10;99.90;;;;;;6186358;23;20005;-81
2023/10/13 19:25:24;;;;;;;22.40;8.50;;;18.10;99.90;;;;;;6159694;23;20064;-77
2023/10/13 19:27:49;;;;;;;21.08;10.00;;;18.10;99.90;;;;;;6186155;23;20013;-80
2023/10/13 19:30:21;;;;;;;21.98;8.75;;;18.10;99.90;;;;;;6159232;23;20020;-82